Friday, January 30, 2015
10:55 UTC
  |  Log In   |  Register Free
Airport Search:

Livermore Municipal Airport
(KLVK)

FAA data valid effective January 08, 2015 - March 05, 2015 (unless otherwise noted).

 
 
 
 
 
 
 
 
 
 
 
 
 
 

Current Aviation Weather for Livermore Municipal Airport (KLVK)

The most recent METAR observation for KLVK was updated at: 1015
METAR Summary (Translated METAR)
KLVK
300953Z AUTO 00000KT 10SM CLR 07/04 A3005 RMK AO2 SLP174 T00670039
KHWD
300954Z AUTO 08003KT 10SM FEW008 08/07 A3005 RMK AO2 SLP185 T00780072
(14.5 nm SW from KLVK)
KOAK
300953Z 00000KT 10SM CLR 08/07 A3005 RMK AO2 SLP176 T00830067
(19.1 nm NW from KLVK)
TAF Summary (Translated TAF)
KLVK
300539Z 3006/3106 00000KT P6SM SKC FM301400 00000KT 6SM HZ SKC FM302000 33006KT P6SM SKC FM310500 VRB03KT P6SM SKC
KOAK
(19.1 nm NW from KLVK)
300535Z 3006/3112 00000KT P6SM SKC FM300900 VRB03KT 6SM BR SCT007 FM301400 29004KT 3SM BR SCT006 FM301830 28006KT 5SM BR FEW010 FM302200 29009KT P6SM FEW012 FM310400 33006KT P6SM SKC
  Airport Weather Conditions for KLVK

 Current Weather at LVK
44° F
Fair
North winds at 0.0 mph
LVK NOAA Radar

Pressure: 30.05 in
Humidity: 83%
Wind: Calm
Dew Point: 39.0°F
Visibility: 10.00 mi


Airport Weather Forecast for KLVK

Translated METAR and TAF for KLVK
Translated METAR for KLVK (1056 UTC 30 January 2015)
found at http://aviationweather.gov/adds/metars/
 
METAR text: KLVK 301053Z AUTO 08003KT 10SM CLR 07/04 A3004 RMK AO2 SLP172 T00670039
Conditions at: KLVK (LIVERMORE , CA, US) observed 1053 UTC 30 January 2015
Temperature: 6.7°C (44°F)
Dewpoint: 3.9°C (39°F) [RH = 82%]
Pressure (altimeter): 30.04 inches Hg (1017.4 mb)
[Sea-level pressure: 1017.2 mb]
Winds: from the E (80 degrees) at 3 MPH (3 knots; 1.6 m/s)
Visibility: 10 or more miles (16+ km)
Ceiling: at least 12,000 feet AGL
Clouds: sky clear below 12,000 feet AGL
Weather: automated observation with no human augmentation;
there may or may not be significant weather present at this time
Translated TAF for KLVK
Forecast for: KLVK (LIVERMORE , CA, US)
TAF Text: KLVK 300539Z 3006/3106 00000KT P6SM SKC
Forecast period: 0600 to 1400 UTC 30 January 2015
Forecast type: FROM: standard forecast or significant change
Winds: calm
Visibility: 6 or more miles (10+ km)
Clouds: clear skies
Weather: no significant weather forecast for this period
TAF Text: FM301400 00000KT 6SM HZ SKC
Forecast period: 1400 to 2000 UTC 30 January 2015
Forecast type: FROM: standard forecast or significant change
Winds: calm
Visibility: 6 miles (10 km)
Clouds: clear skies
Weather: HZ  (haze)
TAF Text: FM302000 33006KT P6SM SKC
Forecast period: 2000 UTC 30 January 2015 to 0500 UTC 31 January 2015
Forecast type: FROM: standard forecast or significant change
Winds: from the NNW (330 degrees) at 7 MPH (6 knots; 3.1 m/s)
Visibility: 6 or more miles (10+ km)
Clouds: clear skies
Weather: no significant weather forecast for this period
TAF Text: FM310500 VRB03KT P6SM SKC
Forecast period: 0500 to 0600 UTC 31 January 2015
Forecast type: FROM: standard forecast or significant change
Winds: variable direction winds at 3 MPH (3 knots; 1.6 m/s)
Visibility: 6 or more miles (10+ km)
Clouds: clear skies
Weather: no significant weather forecast for this period

Find All Airport Services Find A Hotel Find A Rental Car Find A Golf Course Find A Restaurant $100 Hamburger



FBO's on the Field
FBO Company Facility Photos Services Transportation Aviation Fuel Prices: Prices include tax
Catering Weather Repair Courtesy Rental Type 100LL JetA JetA+ MOGAS 8087
 
Livermore Municipal Airport

This FBO has not yet been rated
FS:Ascent
Last Updated: Jan-21
Login to update fuel prices
SS:
Contact Livermore Municipal AirportMore FBO Information
 
Add another FBO Facility Photos Catering Weather Repair Courtesy Rental Type 100LL JetA JetA+ MOGAS 8087
Services Transportation Aviation Fuel Prices: Prices include tax


model-print
model-print
model-print
model-print